sensor_id;sensor_type;location;lat;lon;timestamp;temperature;humidity
7317;DHT22;3699;51.462;6.696;2024-03-29T00:02:01;9.80;99.90
7317;DHT22;3699;51.462;6.696;2024-03-29T00:04:27;9.80;99.90
7317;DHT22;3699;51.462;6.696;2024-03-29T00:06:53;9.90;99.90
7317;DHT22;3699;51.462;6.696;2024-03-29T00:09:19;10.10;99.90
7317;DHT22;3699;51.462;6.696;2024-03-29T00:11:45;9.90;99.90
7317;DHT22;3699;51.462;6.696;2024-03-29T00:14:12;9.90;99.90
7317;DHT22;3699;51.462;6.696;2024-03-29T00:16:38;9.90;99.90
7317;DHT22;3699;51.462;6.696;2024-03-29T00:19:04;10.10;99.90
7317;DHT22;3699;51.462;6.696;2024-03-29T00:21:29;9.60;99.90
7317;DHT22;3699;51.462;6.696;2024-03-29T00:23:55;9.80;99.10
7317;DHT22;3699;51.462;6.696;2024-03-29T00:26:21;10.00;98.60
7317;DHT22;3699;51.462;6.696;2024-03-29T00:28:47;10.00;99.20
7317;DHT22;3699;51.462;6.696;2024-03-29T00:31:14;9.90;98.80
7317;DHT22;3699;51.462;6.696;2024-03-29T00:33:40;10.10;96.90
7317;DHT22;3699;51.462;6.696;2024-03-29T00:36:06;10.00;96.10
7317;DHT22;3699;51.462;6.696;2024-03-29T00:38:32;10.00;95.70
7317;DHT22;3699;51.462;6.696;2024-03-29T00:40:58;10.00;97.00
7317;DHT22;3699;51.462;6.696;2024-03-29T00:43:23;9.90;97.20
7317;DHT22;3699;51.462;6.696;2024-03-29T00:45:49;10.10;97.70
7317;DHT22;3699;51.462;6.696;2024-03-29T00:48:17;9.90;97.10
7317;DHT22;3699;51.462;6.696;2024-03-29T00:50:43;9.90;98.20
7317;DHT22;3699;51.462;6.696;2024-03-29T00:53:09;9.90;98.60
7317;DHT22;3699;51.462;6.696;2024-03-29T00:55:35;10.00;97.60
7317;DHT22;3699;51.462;6.696;2024-03-29T00:58:01;9.90;98.90
7317;DHT22;3699;51.462;6.696;2024-03-29T01:00:27;9.90;99.90
7317;DHT22;3699;51.462;6.696;2024-03-29T01:02:52;10.10;99.80
7317;DHT22;3699;51.462;6.696;2024-03-29T01:05:20;9.90;99.90
7317;DHT22;3699;51.462;6.696;2024-03-29T01:07:45;9.80;99.90
7317;DHT22;3699;51.462;6.696;2024-03-29T01:15:04;9.80;99.90
7317;DHT22;3699;51.462;6.696;2024-03-29T01:17:30;9.80;99.90
7317;DHT22;3699;51.462;6.696;2024-03-29T01:22:24;9.80;99.90
7317;DHT22;3699;51.462;6.696;2024-03-29T01:27:16;9.70;99.90
7317;DHT22;3699;51.462;6.696;2024-03-29T01:29:42;9.80;99.90
7317;DHT22;3699;51.462;6.696;2024-03-29T01:32:07;9.90;99.90
7317;DHT22;3699;51.462;6.696;2024-03-29T01:34:33;9.80;99.90
7317;DHT22;3699;51.462;6.696;2024-03-29T01:36:59;9.90;99.90
7317;DHT22;3699;51.462;6.696;2024-03-29T01:39:26;9.80;99.90
7317;DHT22;3699;51.462;6.696;2024-03-29T01:41:52;9.90;99.90
7317;DHT22;3699;51.462;6.696;2024-03-29T01:44:18;9.80;99.90
7317;DHT22;3699;51.462;6.696;2024-03-29T01:46:45;9.90;98.90
7317;DHT22;3699;51.462;6.696;2024-03-29T01:49:13;9.90;99.70
7317;DHT22;3699;51.462;6.696;2024-03-29T01:51:40;10.00;97.80
7317;DHT22;3699;51.462;6.696;2024-03-29T01:54:08;10.00;96.80
7317;DHT22;3699;51.462;6.696;2024-03-29T01:56:38;10.00;96.60
7317;DHT22;3699;51.462;6.696;2024-03-29T01:59:05;9.80;97.00
7317;DHT22;3699;51.462;6.696;2024-03-29T02:01:35;10.00;95.20
7317;DHT22;3699;51.462;6.696;2024-03-29T02:04:03;10.20;95.40
7317;DHT22;3699;51.462;6.696;2024-03-29T02:06:30;10.20;94.70
7317;DHT22;3699;51.462;6.696;2024-03-29T02:11:24;10.10;92.40
7317;DHT22;3699;51.462;6.696;2024-03-29T02:13:52;9.80;94.10
7317;DHT22;3699;51.462;6.696;2024-03-29T02:16:19;10.30;90.50
7317;DHT22;3699;51.462;6.696;2024-03-29T02:18:46;10.20;90.20
7317;DHT22;3699;51.462;6.696;2024-03-29T02:21:13;10.20;91.70
7317;DHT22;3699;51.462;6.696;2024-03-29T02:23:43;10.20;91.40
7317;DHT22;3699;51.462;6.696;2024-03-29T02:26:12;10.30;87.90
7317;DHT22;3699;51.462;6.696;2024-03-29T02:28:39;10.30;90.40
7317;DHT22;3699;51.462;6.696;2024-03-29T02:31:05;10.30;86.90
7317;DHT22;3699;51.462;6.696;2024-03-29T02:33:33;10.30;87.80
7317;DHT22;3699;51.462;6.696;2024-03-29T02:38:27;10.60;86.90
7317;DHT22;3699;51.462;6.696;2024-03-29T02:40:54;10.30;79.10
7317;DHT22;3699;51.462;6.696;2024-03-29T02:43:22;10.30;84.30
7317;DHT22;3699;51.462;6.696;2024-03-29T02:48:15;10.40;83.80
7317;DHT22;3699;51.462;6.696;2024-03-29T02:50:41;8.40;83.40
7317;DHT22;3699;51.462;6.696;2024-03-29T02:53:08;10.50;84.80
7317;DHT22;3699;51.462;6.696;2024-03-29T02:58:01;10.40;90.30
7317;DHT22;3699;51.462;6.696;2024-03-29T03:00:28;10.70;92.30
7317;DHT22;3699;51.462;6.696;2024-03-29T03:02:54;10.50;98.20
7317;DHT22;3699;51.462;6.696;2024-03-29T03:05:20;10.60;99.80
7317;DHT22;3699;51.462;6.696;2024-03-29T03:07:47;10.70;99.90
7317;DHT22;3699;51.462;6.696;2024-03-29T03:10:31;10.60;99.90
7317;DHT22;3699;51.462;6.696;2024-03-29T03:13:15;10.60;99.90
7317;DHT22;3699;51.462;6.696;2024-03-29T03:15:43;10.50;99.90
7317;DHT22;3699;51.462;6.696;2024-03-29T03:18:10;10.50;99.90
7317;DHT22;3699;51.462;6.696;2024-03-29T03:20:36;10.70;99.90
7317;DHT22;3699;51.462;6.696;2024-03-29T03:23:03;10.60;99.90
7317;DHT22;3699;51.462;6.696;2024-03-29T03:25:29;10.40;99.90
7317;DHT22;3699;51.462;6.696;2024-03-29T03:27:56;10.40;99.90
7317;DHT22;3699;51.462;6.696;2024-03-29T03:30:22;10.40;99.90
7317;DHT22;3699;51.462;6.696;2024-03-29T03:32:50;10.50;99.90
7317;DHT22;3699;51.462;6.696;2024-03-29T03:35:15;10.40;99.90
7317;DHT22;3699;51.462;6.696;2024-03-29T03:37:42;10.60;99.90
7317;DHT22;3699;51.462;6.696;2024-03-29T03:42:35;10.30;99.90
7317;DHT22;3699;51.462;6.696;2024-03-29T03:45:01;10.40;99.90
7317;DHT22;3699;51.462;6.696;2024-03-29T03:47:29;10.40;99.90
7317;DHT22;3699;51.462;6.696;2024-03-29T03:49:56;10.30;99.90
7317;DHT22;3699;51.462;6.696;2024-03-29T03:52:23;10.40;99.90
7317;DHT22;3699;51.462;6.696;2024-03-29T03:54:48;10.40;99.90
7317;DHT22;3699;51.462;6.696;2024-03-29T03:57:15;10.30;99.90
7317;DHT22;3699;51.462;6.696;2024-03-29T03:59:41;10.40;99.90
7317;DHT22;3699;51.462;6.696;2024-03-29T04:02:08;10.40;99.90
7317;DHT22;3699;51.462;6.696;2024-03-29T04:04:34;10.40;99.90
7317;DHT22;3699;51.462;6.696;2024-03-29T04:07:02;10.20;99.90
7317;DHT22;3699;51.462;6.696;2024-03-29T04:11:55;10.40;99.90
7317;DHT22;3699;51.462;6.696;2024-03-29T04:14:21;10.40;99.90
7317;DHT22;3699;51.462;6.696;2024-03-29T04:16:47;10.40;99.90
7317;DHT22;3699;51.462;6.696;2024-03-29T04:19:13;10.30;99.90
7317;DHT22;3699;51.462;6.696;2024-03-29T04:24:07;10.30;99.90
7317;DHT22;3699;51.462;6.696;2024-03-29T04:26:35;10.40;99.90
7317;DHT22;3699;51.462;6.696;2024-03-29T04:29:02;10.20;99.90
7317;DHT22;3699;51.462;6.696;2024-03-29T04:31:29;10.10;99.90
7317;DHT22;3699;51.462;6.696;2024-03-29T04:33:55;10.10;99.90
7317;DHT22;3699;51.462;6.696;2024-03-29T04:38:48;10.10;99.90
7317;DHT22;3699;51.462;6.696;2024-03-29T04:41:17;10.00;99.90
7317;DHT22;3699;51.462;6.696;2024-03-29T04:43:43;10.00;99.90
7317;DHT22;3699;51.462;6.696;2024-03-29T04:46:11;9.80;99.90
7317;DHT22;3699;51.462;6.696;2024-03-29T04:48:38;10.30;99.90
7317;DHT22;3699;51.462;6.696;2024-03-29T04:51:06;9.70;99.90
7317;DHT22;3699;51.462;6.696;2024-03-29T04:53:35;9.80;99.90
7317;DHT22;3699;51.462;6.696;2024-03-29T04:56:02;9.80;99.90
7317;DHT22;3699;51.462;6.696;2024-03-29T04:58:30;9.60;99.90
7317;DHT22;3699;51.462;6.696;2024-03-29T05:00:57;9.70;99.90
7317;DHT22;3699;51.462;6.696;2024-03-29T05:03:24;9.60;99.90
7317;DHT22;3699;51.462;6.696;2024-03-29T05:05:52;9.50;99.90
7317;DHT22;3699;51.462;6.696;2024-03-29T05:08:19;9.50;99.90
7317;DHT22;3699;51.462;6.696;2024-03-29T05:10:47;9.50;99.90
7317;DHT22;3699;51.462;6.696;2024-03-29T05:13:15;9.40;99.90
7317;DHT22;3699;51.462;6.696;2024-03-29T05:15:43;9.40;99.90
7317;DHT22;3699;51.462;6.696;2024-03-29T05:18:10;9.50;99.90
7317;DHT22;3699;51.462;6.696;2024-03-29T05:20:37;9.30;99.90
7317;DHT22;3699;51.462;6.696;2024-03-29T05:23:05;9.30;99.90
7317;DHT22;3699;51.462;6.696;2024-03-29T05:25:32;9.30;99.90
7317;DHT22;3699;51.462;6.696;2024-03-29T05:27:58;9.30;99.90
7317;DHT22;3699;51.462;6.696;2024-03-29T05:30:25;9.30;99.90
7317;DHT22;3699;51.462;6.696;2024-03-29T05:32:55;9.30;99.90
7317;DHT22;3699;51.462;6.696;2024-03-29T05:35:22;9.30;99.90
7317;DHT22;3699;51.462;6.696;2024-03-29T05:37:49;8.90;99.90
7317;DHT22;3699;51.462;6.696;2024-03-29T05:40:18;9.40;99.90
7317;DHT22;3699;51.462;6.696;2024-03-29T05:42:50;9.40;99.90
7317;DHT22;3699;51.462;6.696;2024-03-29T05:45:26;9.20;99.90
7317;DHT22;3699;51.462;6.696;2024-03-29T05:47:55;9.30;99.90
7317;DHT22;3699;51.462;6.696;2024-03-29T05:50:23;9.20;99.90
7317;DHT22;3699;51.462;6.696;2024-03-29T05:52:51;9.40;99.90
7317;DHT22;3699;51.462;6.696;2024-03-29T05:55:18;9.20;99.90
7317;DHT22;3699;51.462;6.696;2024-03-29T05:57:45;9.20;99.90
7317;DHT22;3699;51.462;6.696;2024-03-29T06:00:14;9.30;99.90
7317;DHT22;3699;51.462;6.696;2024-03-29T06:02:41;9.20;99.90
7317;DHT22;3699;51.462;6.696;2024-03-29T06:05:11;9.20;99.90
7317;DHT22;3699;51.462;6.696;2024-03-29T06:07:38;9.10;99.90
7317;DHT22;3699;51.462;6.696;2024-03-29T06:10:05;9.10;99.90
7317;DHT22;3699;51.462;6.696;2024-03-29T06:12:34;9.10;99.90
7317;DHT22;3699;51.462;6.696;2024-03-29T06:15:01;9.30;99.90
7317;DHT22;3699;51.462;6.696;2024-03-29T06:17:45;9.10;99.90
7317;DHT22;3699;51.462;6.696;2024-03-29T06:20:14;9.10;99.90
7317;DHT22;3699;51.462;6.696;2024-03-29T06:22:41;8.90;99.90
7317;DHT22;3699;51.462;6.696;2024-03-29T06:25:08;9.10;99.90
7317;DHT22;3699;51.462;6.696;2024-03-29T06:27:35;9.10;99.90
7317;DHT22;3699;51.462;6.696;2024-03-29T06:30:04;9.10;99.90
7317;DHT22;3699;51.462;6.696;2024-03-29T06:32:31;9.20;99.90
7317;DHT22;3699;51.462;6.696;2024-03-29T06:34:58;9.40;99.90
7317;DHT22;3699;51.462;6.696;2024-03-29T06:37:26;8.90;99.90
7317;DHT22;3699;51.462;6.696;2024-03-29T06:39:53;9.40;99.90
7317;DHT22;3699;51.462;6.696;2024-03-29T06:42:20;9.30;99.90
7317;DHT22;3699;51.462;6.696;2024-03-29T06:44:47;9.30;99.90
7317;DHT22;3699;51.462;6.696;2024-03-29T06:47:14;9.30;99.90
7317;DHT22;3699;51.462;6.696;2024-03-29T06:49:39;9.20;99.90
7317;DHT22;3699;51.462;6.696;2024-03-29T06:52:06;9.30;99.90
7317;DHT22;3699;51.462;6.696;2024-03-29T06:54:34;9.20;99.90
7317;DHT22;3699;51.462;6.696;2024-03-29T06:57:01;9.20;99.90
7317;DHT22;3699;51.462;6.696;2024-03-29T06:59:28;9.20;99.90
7317;DHT22;3699;51.462;6.696;2024-03-29T07:01:55;9.20;99.90
7317;DHT22;3699;51.462;6.696;2024-03-29T07:04:23;9.20;99.90
7317;DHT22;3699;51.462;6.696;2024-03-29T07:06:50;9.30;99.90
7317;DHT22;3699;51.462;6.696;2024-03-29T07:09:17;9.30;99.90
7317;DHT22;3699;51.462;6.696;2024-03-29T07:11:47;9.30;99.90
7317;DHT22;3699;51.462;6.696;2024-03-29T07:14:14;9.30;99.90
7317;DHT22;3699;51.462;6.696;2024-03-29T07:16:41;9.40;99.90
7317;DHT22;3699;51.462;6.696;2024-03-29T07:19:08;9.60;99.90
7317;DHT22;3699;51.462;6.696;2024-03-29T07:21:38;9.00;99.90
7317;DHT22;3699;51.462;6.696;2024-03-29T07:24:05;9.40;99.90
7317;DHT22;3699;51.462;6.696;2024-03-29T07:26:31;9.70;99.90
7317;DHT22;3699;51.462;6.696;2024-03-29T07:29:00;9.50;99.90
7317;DHT22;3699;51.462;6.696;2024-03-29T07:31:27;9.50;99.90
7317;DHT22;3699;51.462;6.696;2024-03-29T07:33:53;9.60;99.90
7317;DHT22;3699;51.462;6.696;2024-03-29T07:36:20;9.60;99.90
7317;DHT22;3699;51.462;6.696;2024-03-29T07:41:17;9.40;99.90
7317;DHT22;3699;51.462;6.696;2024-03-29T07:43:52;9.80;99.90
7317;DHT22;3699;51.462;6.696;2024-03-29T07:46:20;10.10;99.90
7317;DHT22;3699;51.462;6.696;2024-03-29T07:48:47;10.00;99.90
7317;DHT22;3699;51.462;6.696;2024-03-29T07:51:14;10.00;99.90
7317;DHT22;3699;51.462;6.696;2024-03-29T07:53:41;10.20;99.90
7317;DHT22;3699;51.462;6.696;2024-03-29T07:58:35;10.00;99.90
7317;DHT22;3699;51.462;6.696;2024-03-29T08:01:01;10.30;99.90
7317;DHT22;3699;51.462;6.696;2024-03-29T08:03:29;10.10;99.90
7317;DHT22;3699;51.462;6.696;2024-03-29T08:08:26;10.20;99.90
7317;DHT22;3699;51.462;6.696;2024-03-29T08:10:53;10.30;99.90
7317;DHT22;3699;51.462;6.696;2024-03-29T08:13:20;10.40;99.90
7317;DHT22;3699;51.462;6.696;2024-03-29T08:18:15;10.80;99.90
7317;DHT22;3699;51.462;6.696;2024-03-29T08:20:43;10.80;99.90
7317;DHT22;3699;51.462;6.696;2024-03-29T08:23:10;11.00;99.90
7317;DHT22;3699;51.462;6.696;2024-03-29T08:25:37;10.70;99.90
7317;DHT22;3699;51.462;6.696;2024-03-29T08:30:31;11.30;99.90
7317;DHT22;3699;51.462;6.696;2024-03-29T08:33:01;11.50;99.90
7317;DHT22;3699;51.462;6.696;2024-03-29T08:35:29;11.50;99.90
7317;DHT22;3699;51.462;6.696;2024-03-29T08:37:57;11.40;99.90
7317;DHT22;3699;51.462;6.696;2024-03-29T08:40:24;11.40;99.90
7317;DHT22;3699;51.462;6.696;2024-03-29T08:45:21;11.30;99.90
7317;DHT22;3699;51.462;6.696;2024-03-29T08:50:15;11.30;99.90
7317;DHT22;3699;51.462;6.696;2024-03-29T08:52:42;11.40;99.90
7317;DHT22;3699;51.462;6.696;2024-03-29T08:55:11;11.40;99.90
7317;DHT22;3699;51.462;6.696;2024-03-29T08:57:37;11.50;99.90
7317;DHT22;3699;51.462;6.696;2024-03-29T09:00:06;11.50;99.90
7317;DHT22;3699;51.462;6.696;2024-03-29T09:02:33;11.40;99.90
7317;DHT22;3699;51.462;6.696;2024-03-29T09:07:27;11.30;99.90
7317;DHT22;3699;51.462;6.696;2024-03-29T09:09:54;11.40;99.90
7317;DHT22;3699;51.462;6.696;2024-03-29T09:12:22;12.10;99.90
7317;DHT22;3699;51.462;6.696;2024-03-29T09:14:49;11.40;99.90
7317;DHT22;3699;51.462;6.696;2024-03-29T09:17:16;11.40;99.90
7317;DHT22;3699;51.462;6.696;2024-03-29T09:22:10;11.70;99.90
7317;DHT22;3699;51.462;6.696;2024-03-29T09:24:37;12.00;99.90
7317;DHT22;3699;51.462;6.696;2024-03-29T09:27:05;11.90;99.90
7317;DHT22;3699;51.462;6.696;2024-03-29T09:29:33;12.10;99.90
7317;DHT22;3699;51.462;6.696;2024-03-29T09:32:00;12.10;99.90
7317;DHT22;3699;51.462;6.696;2024-03-29T09:36:56;12.10;99.90
7317;DHT22;3699;51.462;6.696;2024-03-29T09:39:23;12.10;99.90
7317;DHT22;3699;51.462;6.696;2024-03-29T09:41:50;12.10;99.90
7317;DHT22;3699;51.462;6.696;2024-03-29T09:44:17;12.00;99.90
7317;DHT22;3699;51.462;6.696;2024-03-29T09:46:45;12.00;99.90
7317;DHT22;3699;51.462;6.696;2024-03-29T09:49:12;12.00;99.90
7317;DHT22;3699;51.462;6.696;2024-03-29T09:54:09;12.10;99.90
7317;DHT22;3699;51.462;6.696;2024-03-29T09:56:38;12.20;99.90
7317;DHT22;3699;51.462;6.696;2024-03-29T09:59:06;12.30;99.90
7317;DHT22;3699;51.462;6.696;2024-03-29T10:01:34;12.30;99.90
7317;DHT22;3699;51.462;6.696;2024-03-29T10:04:03;12.70;99.90
7317;DHT22;3699;51.462;6.696;2024-03-29T10:06:33;12.50;99.90
7317;DHT22;3699;51.462;6.696;2024-03-29T10:11:28;12.90;99.90
7317;DHT22;3699;51.462;6.696;2024-03-29T10:13:54;13.30;99.90
7317;DHT22;3699;51.462;6.696;2024-03-29T10:16:21;13.50;99.90
7317;DHT22;3699;51.462;6.696;2024-03-29T10:18:49;13.70;99.90
7317;DHT22;3699;51.462;6.696;2024-03-29T10:21:24;13.80;99.90
7317;DHT22;3699;51.462;6.696;2024-03-29T10:26:18;13.70;99.90
7317;DHT22;3699;51.462;6.696;2024-03-29T10:28:46;14.20;99.90
7317;DHT22;3699;51.462;6.696;2024-03-29T10:31:13;14.20;99.90
7317;DHT22;3699;51.462;6.696;2024-03-29T10:33:43;14.20;99.90
7317;DHT22;3699;51.462;6.696;2024-03-29T10:36:10;14.70;99.90
7317;DHT22;3699;51.462;6.696;2024-03-29T10:38:40;14.10;99.90
7317;DHT22;3699;51.462;6.696;2024-03-29T10:41:07;13.80;99.90
7317;DHT22;3699;51.462;6.696;2024-03-29T10:43:34;14.00;99.90
7317;DHT22;3699;51.462;6.696;2024-03-29T10:46:01;14.00;99.90
7317;DHT22;3699;51.462;6.696;2024-03-29T10:48:30;14.10;99.90
7317;DHT22;3699;51.462;6.696;2024-03-29T10:50:58;14.00;99.90
7317;DHT22;3699;51.462;6.696;2024-03-29T10:53:27;14.10;99.90
7317;DHT22;3699;51.462;6.696;2024-03-29T10:55:57;14.30;99.90
7317;DHT22;3699;51.462;6.696;2024-03-29T10:58:30;14.30;99.90
7317;DHT22;3699;51.462;6.696;2024-03-29T11:00:57;14.60;99.90
7317;DHT22;3699;51.462;6.696;2024-03-29T11:03:32;14.70;99.90
7317;DHT22;3699;51.462;6.696;2024-03-29T11:06:02;15.00;99.90
7317;DHT22;3699;51.462;6.696;2024-03-29T11:08:32;15.00;99.90
7317;DHT22;3699;51.462;6.696;2024-03-29T11:11:03;15.20;99.90
7317;DHT22;3699;51.462;6.696;2024-03-29T11:13:34;15.40;99.90
7317;DHT22;3699;51.462;6.696;2024-03-29T11:16:03;15.50;99.90
7317;DHT22;3699;51.462;6.696;2024-03-29T11:18:30;15.60;99.90
7317;DHT22;3699;51.462;6.696;2024-03-29T11:20:58;15.80;99.90
7317;DHT22;3699;51.462;6.696;2024-03-29T11:23:26;15.60;99.90
7317;DHT22;3699;51.462;6.696;2024-03-29T11:25:54;15.80;99.90
7317;DHT22;3699;51.462;6.696;2024-03-29T11:28:26;15.80;99.90
7317;DHT22;3699;51.462;6.696;2024-03-29T11:30:58;15.80;99.90
7317;DHT22;3699;51.462;6.696;2024-03-29T11:33:32;16.10;99.90
7317;DHT22;3699;51.462;6.696;2024-03-29T11:36:03;15.40;99.90
7317;DHT22;3699;51.462;6.696;2024-03-29T11:38:33;16.10;99.90
7317;DHT22;3699;51.462;6.696;2024-03-29T11:41:02;16.30;99.90
7317;DHT22;3699;51.462;6.696;2024-03-29T11:43:31;16.40;99.90
7317;DHT22;3699;51.462;6.696;2024-03-29T11:45:58;16.40;99.90
7317;DHT22;3699;51.462;6.696;2024-03-29T11:48:27;16.60;99.90
7317;DHT22;3699;51.462;6.696;2024-03-29T11:50:54;16.60;99.90
7317;DHT22;3699;51.462;6.696;2024-03-29T11:55:48;16.80;99.90
7317;DHT22;3699;51.462;6.696;2024-03-29T11:58:19;16.90;99.90
7317;DHT22;3699;51.462;6.696;2024-03-29T12:00:47;17.00;99.90
7317;DHT22;3699;51.462;6.696;2024-03-29T12:03:14;17.00;99.90
7317;DHT22;3699;51.462;6.696;2024-03-29T12:08:09;17.10;99.90
7317;DHT22;3699;51.462;6.696;2024-03-29T12:10:36;17.00;99.90
7317;DHT22;3699;51.462;6.696;2024-03-29T12:13:04;17.00;99.90
7317;DHT22;3699;51.462;6.696;2024-03-29T12:15:31;16.90;99.90
7317;DHT22;3699;51.462;6.696;2024-03-29T12:18:02;16.90;99.90
7317;DHT22;3699;51.462;6.696;2024-03-29T12:20:30;16.90;99.90
7317;DHT22;3699;51.462;6.696;2024-03-29T12:22:58;16.60;99.90
7317;DHT22;3699;51.462;6.696;2024-03-29T12:25:26;16.70;99.90
7317;DHT22;3699;51.462;6.696;2024-03-29T12:30:20;17.00;93.80
7317;DHT22;3699;51.462;6.696;2024-03-29T12:32:47;16.60;95.50
7317;DHT22;3699;51.462;6.696;2024-03-29T12:35:16;16.60;93.60
7317;DHT22;3699;51.462;6.696;2024-03-29T12:37:49;16.80;95.70
7317;DHT22;3699;51.462;6.696;2024-03-29T12:40:17;16.50;90.30
7317;DHT22;3699;51.462;6.696;2024-03-29T12:45:15;16.60;90.80
7317;DHT22;3699;51.462;6.696;2024-03-29T12:47:43;16.50;93.80
7317;DHT22;3699;51.462;6.696;2024-03-29T12:50:14;16.90;83.10
7317;DHT22;3699;51.462;6.696;2024-03-29T12:52:47;16.90;80.70
7317;DHT22;3699;51.462;6.696;2024-03-29T12:55:14;17.30;81.50
7317;DHT22;3699;51.462;6.696;2024-03-29T12:57:43;17.40;80.60
7317;DHT22;3699;51.462;6.696;2024-03-29T13:00:11;17.30;66.80
7317;DHT22;3699;51.462;6.696;2024-03-29T13:02:38;17.70;73.70
7317;DHT22;3699;51.462;6.696;2024-03-29T13:05:05;17.60;52.40
7317;DHT22;3699;51.462;6.696;2024-03-29T13:07:33;17.70;48.50
7317;DHT22;3699;51.462;6.696;2024-03-29T13:10:00;17.80;36.60
7317;DHT22;3699;51.462;6.696;2024-03-29T13:12:28;17.80;42.30
7317;DHT22;3699;51.462;6.696;2024-03-29T13:14:56;17.70;48.00
7317;DHT22;3699;51.462;6.696;2024-03-29T13:17:22;17.50;48.00
7317;DHT22;3699;51.462;6.696;2024-03-29T13:19:49;17.60;43.20
7317;DHT22;3699;51.462;6.696;2024-03-29T13:22:16;17.70;53.40
7317;DHT22;3699;51.462;6.696;2024-03-29T13:24:47;17.50;50.40
7317;DHT22;3699;51.462;6.696;2024-03-29T13:27:14;17.60;59.70
7317;DHT22;3699;51.462;6.696;2024-03-29T13:29:42;17.50;55.50
7317;DHT22;3699;51.462;6.696;2024-03-29T13:32:08;17.40;59.50
7317;DHT22;3699;51.462;6.696;2024-03-29T13:34:35;17.90;46.30
7317;DHT22;3699;51.462;6.696;2024-03-29T13:37:02;17.50;45.40
7317;DHT22;3699;51.462;6.696;2024-03-29T13:41:58;18.00;41.60
7317;DHT22;3699;51.462;6.696;2024-03-29T13:44:25;17.40;36.70
7317;DHT22;3699;51.462;6.696;2024-03-29T13:46:51;17.50;50.80
7317;DHT22;3699;51.462;6.696;2024-03-29T13:49:19;17.20;59.90
7317;DHT22;3699;51.462;6.696;2024-03-29T13:51:46;17.00;57.80
7317;DHT22;3699;51.462;6.696;2024-03-29T13:54:13;16.90;56.00
7317;DHT22;3699;51.462;6.696;2024-03-29T13:56:39;17.20;60.40
7317;DHT22;3699;51.462;6.696;2024-03-29T13:59:08;16.90;51.50
7317;DHT22;3699;51.462;6.696;2024-03-29T14:01:34;16.80;58.10
7317;DHT22;3699;51.462;6.696;2024-03-29T14:04:01;16.90;58.50
7317;DHT22;3699;51.462;6.696;2024-03-29T14:06:28;16.60;60.60
7317;DHT22;3699;51.462;6.696;2024-03-29T14:08:56;16.80;54.60
7317;DHT22;3699;51.462;6.696;2024-03-29T14:13:50;16.90;51.80
7317;DHT22;3699;51.462;6.696;2024-03-29T14:16:22;17.00;53.00
7317;DHT22;3699;51.462;6.696;2024-03-29T14:18:49;17.30;49.10
7317;DHT22;3699;51.462;6.696;2024-03-29T14:21:16;17.40;47.30
7317;DHT22;3699;51.462;6.696;2024-03-29T14:23:42;17.30;39.90
7317;DHT22;3699;51.462;6.696;2024-03-29T14:26:09;17.60;36.10
7317;DHT22;3699;51.462;6.696;2024-03-29T14:28:36;17.40;30.20
7317;DHT22;3699;51.462;6.696;2024-03-29T14:31:03;17.50;32.10
7317;DHT22;3699;51.462;6.696;2024-03-29T14:33:31;17.50;32.50
7317;DHT22;3699;51.462;6.696;2024-03-29T14:35:59;17.80;30.60
7317;DHT22;3699;51.462;6.696;2024-03-29T14:38:25;17.40;40.10
7317;DHT22;3699;51.462;6.696;2024-03-29T14:40:52;17.40;41.30
7317;DHT22;3699;51.462;6.696;2024-03-29T14:43:19;17.10;45.50
7317;DHT22;3699;51.462;6.696;2024-03-29T14:45:46;17.50;46.10
7317;DHT22;3699;51.462;6.696;2024-03-29T14:48:14;17.40;31.20
7317;DHT22;3699;51.462;6.696;2024-03-29T14:50:42;17.50;26.70
7317;DHT22;3699;51.462;6.696;2024-03-29T14:53:10;17.40;26.00
7317;DHT22;3699;51.462;6.696;2024-03-29T14:55:37;17.20;28.50
7317;DHT22;3699;51.462;6.696;2024-03-29T14:58:05;17.30;25.80
7317;DHT22;3699;51.462;6.696;2024-03-29T15:00:32;17.20;28.40
7317;DHT22;3699;51.462;6.696;2024-03-29T15:02:58;17.30;28.70
7317;DHT22;3699;51.462;6.696;2024-03-29T15:05:25;17.10;30.10
7317;DHT22;3699;51.462;6.696;2024-03-29T15:07:54;17.20;30.90
7317;DHT22;3699;51.462;6.696;2024-03-29T15:10:20;17.30;30.50
7317;DHT22;3699;51.462;6.696;2024-03-29T15:12:48;17.40;29.30
7317;DHT22;3699;51.462;6.696;2024-03-29T15:15:15;17.20;31.20
7317;DHT22;3699;51.462;6.696;2024-03-29T15:17:43;17.10;27.20
7317;DHT22;3699;51.462;6.696;2024-03-29T15:20:11;17.40;30.80
7317;DHT22;3699;51.462;6.696;2024-03-29T15:22:41;17.00;27.30
7317;DHT22;3699;51.462;6.696;2024-03-29T15:25:11;17.10;28.00
7317;DHT22;3699;51.462;6.696;2024-03-29T15:27:37;17.10;27.70
7317;DHT22;3699;51.462;6.696;2024-03-29T15:30:27;17.30;27.30
7317;DHT22;3699;51.462;6.696;2024-03-29T15:32:54;17.00;31.20
7317;DHT22;3699;51.462;6.696;2024-03-29T15:35:21;17.00;30.50
7317;DHT22;3699;51.462;6.696;2024-03-29T15:37:48;17.40;32.90
7317;DHT22;3699;51.462;6.696;2024-03-29T15:40:16;17.00;29.40
7317;DHT22;3699;51.462;6.696;2024-03-29T15:42:43;17.10;29.60
7317;DHT22;3699;51.462;6.696;2024-03-29T15:45:10;17.10;30.00
7317;DHT22;3699;51.462;6.696;2024-03-29T15:47:37;17.00;27.20
7317;DHT22;3699;51.462;6.696;2024-03-29T15:50:04;17.40;24.50
7317;DHT22;3699;51.462;6.696;2024-03-29T15:54:58;16.90;25.00
7317;DHT22;3699;51.462;6.696;2024-03-29T15:57:26;17.20;24.60
7317;DHT22;3699;51.462;6.696;2024-03-29T15:59:53;16.70;27.00
7317;DHT22;3699;51.462;6.696;2024-03-29T16:04:46;16.50;30.20
7317;DHT22;3699;51.462;6.696;2024-03-29T16:07:13;16.60;30.60
7317;DHT22;3699;51.462;6.696;2024-03-29T16:09:40;16.40;35.20
7317;DHT22;3699;51.462;6.696;2024-03-29T16:12:07;16.40;32.90
7317;DHT22;3699;51.462;6.696;2024-03-29T16:14:35;16.40;42.80
7317;DHT22;3699;51.462;6.696;2024-03-29T16:17:01;15.60;44.20
7317;DHT22;3699;51.462;6.696;2024-03-29T16:19:27;16.20;45.50
7317;DHT22;3699;51.462;6.696;2024-03-29T16:21:54;16.20;45.90
7317;DHT22;3699;51.462;6.696;2024-03-29T16:24:20;15.80;70.60
7317;DHT22;3699;51.462;6.696;2024-03-29T16:26:46;15.80;80.80
7317;DHT22;3699;51.462;6.696;2024-03-29T16:29:12;16.10;87.90
7317;DHT22;3699;51.462;6.696;2024-03-29T16:31:41;15.70;87.70
7317;DHT22;3699;51.462;6.696;2024-03-29T16:34:06;15.60;92.60
7317;DHT22;3699;51.462;6.696;2024-03-29T16:36:33;15.60;94.70
7317;DHT22;3699;51.462;6.696;2024-03-29T16:38:59;15.60;94.80
7317;DHT22;3699;51.462;6.696;2024-03-29T16:41:26;15.40;98.40
7317;DHT22;3699;51.462;6.696;2024-03-29T16:43:51;15.50;98.90
7317;DHT22;3699;51.462;6.696;2024-03-29T16:46:18;16.00;99.90
7317;DHT22;3699;51.462;6.696;2024-03-29T16:48:45;14.90;98.80
7317;DHT22;3699;51.462;6.696;2024-03-29T16:51:12;15.60;98.30
7317;DHT22;3699;51.462;6.696;2024-03-29T16:53:38;15.90;99.00
7317;DHT22;3699;51.462;6.696;2024-03-29T16:56:05;15.50;98.60
7317;DHT22;3699;51.462;6.696;2024-03-29T16:58:31;15.90;99.90
7317;DHT22;3699;51.462;6.696;2024-03-29T17:00:57;15.50;99.10
7317;DHT22;3699;51.462;6.696;2024-03-29T17:03:23;15.50;98.70
7317;DHT22;3699;51.462;6.696;2024-03-29T17:05:51;15.30;99.90
7317;DHT22;3699;51.462;6.696;2024-03-29T17:10:44;15.50;99.90
7317;DHT22;3699;51.462;6.696;2024-03-29T17:15:37;15.00;99.90
7317;DHT22;3699;51.462;6.696;2024-03-29T17:18:03;15.50;99.90
7317;DHT22;3699;51.462;6.696;2024-03-29T17:20:30;15.30;99.90
7317;DHT22;3699;51.462;6.696;2024-03-29T17:22:57;15.20;99.90
7317;DHT22;3699;51.462;6.696;2024-03-29T17:25:24;15.30;99.90
7317;DHT22;3699;51.462;6.696;2024-03-29T17:27:50;15.10;99.90
7317;DHT22;3699;51.462;6.696;2024-03-29T17:30:17;15.20;99.90
7317;DHT22;3699;51.462;6.696;2024-03-29T17:32:43;14.40;99.90
7317;DHT22;3699;51.462;6.696;2024-03-29T17:35:09;15.10;99.90